createdAt,value
2022-10-22T00:00:48.996Z,6.43
2022-10-22T00:03:16.102Z,5.50
2022-10-22T00:05:44.536Z,6.85
2022-10-22T00:08:11.631Z,5.25
2022-10-22T00:10:38.882Z,5.70
2022-10-22T00:13:06.134Z,6.25
2022-10-22T00:15:33.363Z,8.52
2022-10-22T00:18:00.458Z,5.93
2022-10-22T00:20:27.571Z,6.57
2022-10-22T00:22:56.006Z,6.72
2022-10-22T00:25:23.165Z,5.47
2022-10-22T00:27:50.285Z,7.88
2022-10-22T00:30:17.458Z,7.00
2022-10-22T00:32:45.583Z,6.40
2022-10-22T00:35:12.697Z,8.65
2022-10-22T00:37:39.785Z,7.30
2022-10-22T00:40:10.331Z,8.25
2022-10-22T00:42:37.841Z,6.50
2022-10-22T00:45:19.610Z,7.50
2022-10-22T00:47:52.040Z,5.30
2022-10-22T00:50:23.352Z,6.50
2022-10-22T00:52:50.748Z,7.35
2022-10-22T00:55:20.393Z,6.60
2022-10-22T00:57:48.514Z,6.72
2022-10-22T01:00:16.832Z,7.30
2022-10-22T01:03:04.667Z,5.30
2022-10-22T01:05:39.514Z,8.05
2022-10-22T01:08:14.225Z,8.07
2022-10-22T01:10:53.560Z,6.38
2022-10-22T01:13:31.843Z,6.63
2022-10-22T01:16:04.677Z,6.53
2022-10-22T01:18:39.097Z,6.28
2022-10-22T01:21:15.741Z,5.85
2022-10-22T01:24:24.254Z,7.53
2022-10-22T01:27:13.198Z,6.50
2022-10-22T01:29:46.543Z,6.07
2022-10-22T01:32:17.451Z,6.60
2022-10-22T01:34:49.168Z,5.72
2022-10-22T01:37:18.461Z,6.25
2022-10-22T01:39:47.694Z,6.63
2022-10-22T01:42:15.175Z,5.10
2022-10-22T01:44:43.664Z,5.75
2022-10-22T01:47:17.066Z,5.65
2022-10-22T01:50:17.746Z,7.78
2022-10-22T01:53:02.273Z,6.93
2022-10-22T01:55:33.478Z,5.05
2022-10-22T01:58:13.504Z,5.03
2022-10-22T02:00:57.063Z,5.93
2022-10-22T02:03:29.024Z,5.72
2022-10-22T02:06:01.126Z,6.57
2022-10-22T02:08:31.272Z,5.25
2022-10-22T02:11:00.275Z,5.57
2022-10-22T02:13:32.208Z,6.32
2022-10-22T02:16:02.156Z,5.82
2022-10-22T02:18:35.297Z,6.60
2022-10-22T02:21:05.973Z,6.07
2022-10-22T02:23:33.403Z,5.25
2022-10-22T02:26:06.146Z,4.90
2022-10-22T02:28:39.262Z,4.93
2022-10-22T02:31:15.261Z,6.38
2022-10-22T02:33:45.874Z,8.77
2022-10-22T02:36:14.387Z,5.82
2022-10-22T02:38:42.502Z,5.90
2022-10-22T02:41:10.352Z,7.75
2022-10-22T02:43:41.582Z,6.15
2022-10-22T02:46:11.332Z,7.47
2022-10-22T02:48:38.494Z,5.60
2022-10-22T02:51:05.971Z,5.43
2022-10-22T02:53:33.094Z,6.38
2022-10-22T02:56:00.201Z,5.45
2022-10-22T02:58:27.425Z,5.40
2022-10-22T03:00:54.615Z,5.68
2022-10-22T03:03:23.652Z,5.25
2022-10-22T03:05:50.820Z,5.95
2022-10-22T03:08:18.162Z,5.95
2022-10-22T03:10:45.590Z,5.38
2022-10-22T03:13:12.712Z,5.15
2022-10-22T03:15:39.862Z,5.13
2022-10-22T03:18:06.990Z,6.15
2022-10-22T03:20:35.522Z,5.63
2022-10-22T03:23:03.327Z,5.88
2022-10-22T03:25:31.967Z,5.75
2022-10-22T03:28:03.140Z,5.32
2022-10-22T03:30:30.249Z,5.43
2022-10-22T03:32:57.528Z,7.43
2022-10-22T03:35:24.773Z,6.43
2022-10-22T03:37:54.262Z,5.60
2022-10-22T03:40:21.510Z,5.97
2022-10-22T03:42:48.680Z,4.93
2022-10-22T03:45:15.845Z,6.00
2022-10-22T03:47:43.229Z,6.72
2022-10-22T03:50:10.976Z,5.78
2022-10-22T03:52:39.860Z,5.57
2022-10-22T03:55:09.560Z,6.70
2022-10-22T03:57:36.988Z,5.75
2022-10-22T04:00:06.206Z,6.50
2022-10-22T04:02:33.373Z,6.70
2022-10-22T04:05:00.569Z,6.07
2022-10-22T04:07:27.727Z,7.82
2022-10-22T04:09:54.844Z,5.25
2022-10-22T04:12:23.567Z,5.57
2022-10-22T04:14:50.650Z,6.00
2022-10-22T04:17:17.772Z,6.20
2022-10-22T04:19:44.902Z,6.30
2022-10-22T04:22:12.001Z,6.45
2022-10-22T04:24:39.100Z,6.15
2022-10-22T04:27:06.266Z,6.07
2022-10-22T04:29:34.782Z,5.82
2022-10-22T04:32:01.871Z,6.60
2022-10-22T04:34:29.433Z,6.93
2022-10-22T04:36:56.518Z,5.88
2022-10-22T04:39:23.605Z,6.88
2022-10-22T04:41:50.754Z,7.18
2022-10-22T04:44:18.278Z,6.40
2022-10-22T04:46:47.328Z,7.15
2022-10-22T04:49:14.461Z,6.53
2022-10-22T04:51:41.760Z,5.07
2022-10-22T04:54:08.866Z,5.85
2022-10-22T04:56:35.984Z,5.70
2022-10-22T04:59:05.487Z,4.97
2022-10-22T05:01:37.011Z,7.65
2022-10-22T05:04:11.040Z,6.60
2022-10-22T05:06:38.435Z,5.65
2022-10-22T05:09:08.217Z,5.13
2022-10-22T05:11:37.390Z,6.88
2022-10-22T05:14:06.476Z,6.30
2022-10-22T05:16:34.939Z,8.07
2022-10-22T05:19:02.969Z,6.13
2022-10-22T05:21:31.408Z,10.00
2022-10-22T05:23:59.073Z,7.70
2022-10-22T05:26:28.117Z,9.50
2022-10-22T05:28:55.901Z,6.78
2022-10-22T05:31:23.462Z,6.43
2022-10-22T05:33:50.594Z,6.30
2022-10-22T05:36:19.714Z,7.63
2022-10-22T05:38:48.846Z,8.93
2022-10-22T05:41:17.782Z,27.90
2022-10-22T05:43:45.643Z,15.20
2022-10-22T05:46:19.883Z,10.60
2022-10-22T05:48:50.219Z,16.25
2022-10-22T05:51:17.967Z,16.23
2022-10-22T05:53:45.081Z,12.52
2022-10-22T05:56:15.907Z,9.02
2022-10-22T05:58:45.664Z,10.20
2022-10-22T06:01:15.276Z,13.32
2022-10-22T06:03:43.408Z,10.48
2022-10-22T06:06:19.485Z,10.00
2022-10-22T06:08:47.800Z,13.80
2022-10-22T06:11:17.748Z,18.00
2022-10-22T06:13:44.893Z,12.27
2022-10-22T06:16:12.182Z,11.02
2022-10-22T06:18:39.320Z,9.98
2022-10-22T06:21:07.632Z,12.95
2022-10-22T06:23:35.142Z,16.00
2022-10-22T06:26:02.578Z,10.32
2022-10-22T06:28:32.093Z,7.53
2022-10-22T06:31:00.205Z,8.20
2022-10-22T06:33:28.182Z,10.65
2022-10-22T06:35:55.274Z,8.23
2022-10-22T06:38:22.400Z,11.23
2022-10-22T06:40:49.500Z,6.75
2022-10-22T06:43:16.569Z,5.22
2022-10-22T06:45:45.022Z,8.00
2022-10-22T06:48:12.124Z,7.20
2022-10-22T06:50:39.206Z,8.38
2022-10-22T06:53:06.431Z,12.18
2022-10-22T06:55:35.590Z,8.05
2022-10-22T06:58:02.792Z,7.43
2022-10-22T07:00:29.914Z,8.40
2022-10-22T07:02:59.299Z,7.60
2022-10-22T07:05:27.061Z,8.35
2022-10-22T07:07:54.163Z,10.45
2022-10-22T07:10:21.258Z,10.10
2022-10-22T07:12:48.351Z,7.65
2022-10-22T07:15:15.580Z,8.35
2022-10-22T07:17:42.712Z,7.55
2022-10-22T07:20:11.836Z,8.23
2022-10-22T07:22:39.437Z,8.30
2022-10-22T07:25:07.615Z,7.97
2022-10-22T07:27:34.758Z,12.40
2022-10-22T07:30:04.317Z,9.63
2022-10-22T07:32:31.428Z,8.10
2022-10-22T07:34:58.525Z,7.85
2022-10-22T07:37:27.001Z,9.77
2022-10-22T07:39:54.119Z,10.40
2022-10-22T07:42:21.335Z,14.32
2022-10-22T07:44:48.475Z,12.32
2022-10-22T07:47:15.728Z,14.10
2022-10-22T07:49:42.823Z,12.75
2022-10-22T07:52:09.954Z,10.43
2022-10-22T07:54:38.429Z,11.82
2022-10-22T07:57:05.523Z,9.00
2022-10-22T07:59:32.639Z,10.07
2022-10-22T08:01:59.726Z,6.70
2022-10-22T08:04:26.841Z,9.10
2022-10-22T08:06:53.945Z,7.63
2022-10-22T08:09:21.058Z,7.47
2022-10-22T08:11:50.244Z,8.45
2022-10-22T08:14:17.602Z,7.22
2022-10-22T08:16:44.818Z,9.02
2022-10-22T08:19:11.939Z,8.38
2022-10-22T08:21:39.501Z,7.65
2022-10-22T08:26:39.910Z,7.40
2022-10-22T08:29:08.694Z,7.10
2022-10-22T08:31:36.023Z,5.55
2022-10-22T08:34:03.334Z,6.80
2022-10-22T08:36:30.417Z,5.53
2022-10-22T08:38:57.536Z,7.93
2022-10-22T08:41:25.005Z,6.95
2022-10-22T08:44:07.065Z,9.38
2022-10-22T08:46:49.369Z,5.63
2022-10-22T08:49:20.442Z,7.25
2022-10-22T08:51:47.802Z,5.38
2022-10-22T08:54:30.491Z,4.97
2022-10-22T08:57:18.485Z,6.65
2022-10-22T08:59:49.632Z,5.47
2022-10-22T09:02:32.752Z,6.85
2022-10-22T09:05:13.347Z,5.00
2022-10-22T09:07:43.036Z,5.53
2022-10-22T09:10:12.748Z,4.65
2022-10-22T09:12:40.292Z,6.25
2022-10-22T09:15:12.604Z,5.82
2022-10-22T09:17:54.354Z,7.28
2022-10-22T09:20:27.916Z,5.97
2022-10-22T09:23:07.850Z,4.85
2022-10-22T09:25:36.674Z,4.50
2022-10-22T09:28:04.657Z,5.85
2022-10-22T09:30:34.731Z,5.57
2022-10-22T09:33:15.341Z,5.20
2022-10-22T09:35:47.473Z,4.88
2022-10-22T09:38:16.489Z,4.13
2022-10-22T09:40:45.771Z,5.20
2022-10-22T09:43:13.847Z,5.18
2022-10-22T09:45:42.225Z,5.45
2022-10-22T09:48:20.414Z,7.45
2022-10-22T09:50:49.887Z,5.55
2022-10-22T09:53:21.588Z,5.10
2022-10-22T09:55:52.044Z,5.35
2022-10-22T09:58:20.106Z,5.55
2022-10-22T10:00:51.904Z,4.75
2022-10-22T10:03:22.869Z,4.00
2022-10-22T10:05:53.194Z,4.55
2022-10-22T10:08:20.365Z,4.35
2022-10-22T10:10:50.815Z,3.40
2022-10-22T10:13:30.404Z,3.60
2022-10-22T10:16:06.031Z,4.57
2022-10-22T10:18:50.247Z,3.97
2022-10-22T10:21:27.697Z,5.00
2022-10-22T10:24:03.305Z,4.38
2022-10-22T10:26:37.403Z,4.57
2022-10-22T10:32:02.771Z,4.65
2022-10-22T10:34:40.677Z,5.53
2022-10-22T10:37:18.747Z,3.95
2022-10-22T10:40:01.654Z,3.75
2022-10-22T10:42:36.513Z,4.80
2022-10-22T10:45:16.392Z,3.80
2022-10-22T10:48:20.930Z,3.15
2022-10-22T10:51:00.441Z,4.32
2022-10-22T10:53:42.092Z,4.13
2022-10-22T10:56:27.243Z,3.42
2022-10-22T10:59:02.660Z,4.63
2022-10-22T11:01:37.561Z,3.35
2022-10-22T11:04:21.523Z,3.38
2022-10-22T11:06:58.652Z,4.15
2022-10-22T11:09:34.259Z,3.53
2022-10-22T11:12:05.257Z,3.85
2022-10-22T11:14:39.195Z,3.67
2022-10-22T11:17:14.310Z,3.90
2022-10-22T11:19:55.611Z,4.05
2022-10-22T11:22:33.181Z,3.85
2022-10-22T11:25:05.704Z,2.80
2022-10-22T11:27:39.384Z,3.05
2022-10-22T11:30:13.662Z,2.88
2022-10-22T11:35:15.318Z,2.88
2022-10-22T11:37:45.582Z,3.03
2022-10-22T11:40:16.733Z,3.42
2022-10-22T11:42:48.034Z,2.42
2022-10-22T11:45:29.478Z,3.20
2022-10-22T11:47:59.809Z,2.90
2022-10-22T11:50:43.175Z,3.38
2022-10-22T11:53:18.905Z,3.50
2022-10-22T11:55:48.109Z,2.70
2022-10-22T11:58:33.589Z,3.15
2022-10-22T12:01:27.656Z,2.95
2022-10-22T12:04:16.966Z,3.47
2022-10-22T12:06:54.406Z,4.57
2022-10-22T12:09:24.614Z,3.47
2022-10-22T12:11:52.183Z,2.90
2022-10-22T12:14:22.746Z,2.95
2022-10-22T12:16:57.296Z,2.70
2022-10-22T12:19:28.991Z,2.78
2022-10-22T12:21:59.426Z,2.47
2022-10-22T12:24:32.445Z,2.80
2022-10-22T12:26:59.678Z,2.72
2022-10-22T12:29:26.839Z,3.47
2022-10-22T12:31:54.226Z,3.25
2022-10-22T12:34:23.482Z,2.92
2022-10-22T12:36:52.800Z,2.63
2022-10-22T12:39:21.867Z,2.00
2022-10-22T12:41:53.342Z,3.17
2022-10-22T12:44:20.494Z,2.67
2022-10-22T12:46:53.022Z,2.40
2022-10-22T12:49:33.325Z,2.67
2022-10-22T12:52:03.077Z,2.90
2022-10-22T12:54:32.196Z,2.13
2022-10-22T12:57:00.847Z,3.13
2022-10-22T12:59:30.636Z,2.97
2022-10-22T13:01:57.954Z,2.40
2022-10-22T13:04:34.038Z,2.47
2022-10-22T13:07:19.883Z,1.90
2022-10-22T13:09:58.723Z,1.95
2022-10-22T13:12:35.121Z,3.03
2022-10-22T13:15:32.289Z,2.35
2022-10-22T13:18:02.984Z,1.75
2022-10-22T13:20:30.496Z,1.90
2022-10-22T13:22:58.574Z,2.90
2022-10-22T13:25:28.659Z,1.50
2022-10-22T13:27:59.339Z,2.15
2022-10-22T13:30:28.810Z,1.88
2022-10-22T13:32:57.387Z,2.75
2022-10-22T13:35:27.737Z,2.45
2022-10-22T13:37:54.949Z,2.95
2022-10-22T13:40:22.068Z,2.47
2022-10-22T13:42:49.213Z,1.65
2022-10-22T13:45:18.286Z,1.73
2022-10-22T13:47:49.450Z,3.10
2022-10-22T13:50:18.425Z,1.65
2022-10-22T13:52:49.413Z,2.58
2022-10-22T13:55:19.076Z,2.42
2022-10-22T13:57:46.574Z,2.85
2022-10-22T14:00:16.865Z,2.10
2022-10-22T14:02:47.707Z,1.83
2022-10-22T14:05:16.538Z,2.25
2022-10-22T14:07:44.375Z,2.40
2022-10-22T14:10:16.999Z,2.78
2022-10-22T14:12:44.153Z,2.03
2022-10-22T14:15:13.193Z,1.67
2022-10-22T14:17:42.336Z,2.53
2022-10-22T14:20:15.679Z,1.77
2022-10-22T14:22:42.787Z,1.65
2022-10-22T14:25:12.340Z,2.95
2022-10-22T14:27:39.746Z,2.47
2022-10-22T14:30:08.631Z,1.60
2022-10-22T14:32:35.779Z,3.13
2022-10-22T14:35:03.129Z,1.98
2022-10-22T14:37:31.880Z,3.50
2022-10-22T14:42:39.474Z,5.78
2022-10-22T14:45:11.325Z,4.45
2022-10-22T14:47:38.428Z,1.77
2022-10-22T14:50:06.301Z,3.58
2022-10-22T14:52:35.189Z,2.45
2022-10-22T14:55:02.342Z,4.05
2022-10-22T14:57:29.471Z,3.85
2022-10-22T14:59:56.576Z,4.40
2022-10-22T15:02:23.732Z,3.92
2022-10-22T15:04:50.947Z,5.05
2022-10-22T15:07:18.999Z,5.35
2022-10-22T15:09:47.650Z,4.68
2022-10-22T15:12:14.759Z,4.65
2022-10-22T15:14:41.869Z,4.10
2022-10-22T15:17:08.970Z,2.05
2022-10-22T15:19:36.196Z,2.55
2022-10-22T15:22:03.320Z,1.98
2022-10-22T15:24:30.434Z,1.63
2022-10-22T15:26:58.990Z,4.43
2022-10-22T15:29:26.142Z,2.15
2022-10-22T15:31:56.194Z,3.38
2022-10-22T15:34:26.295Z,2.05
2022-10-22T15:36:55.194Z,5.07
2022-10-22T15:39:22.858Z,2.83
2022-10-22T15:41:50.759Z,3.22
2022-10-22T15:44:21.365Z,1.70
2022-10-22T15:49:21.251Z,1.80
2022-10-22T15:51:48.746Z,1.63
2022-10-22T15:54:17.540Z,1.35
2022-10-22T15:56:45.081Z,2.38
2022-10-22T15:59:14.662Z,2.10
2022-10-22T16:01:43.665Z,2.13
2022-10-22T16:04:11.707Z,1.92
2022-10-22T16:06:41.886Z,1.75
2022-10-22T16:09:11.477Z,1.88
2022-10-22T16:11:39.546Z,1.10
2022-10-22T16:14:07.640Z,1.10
2022-10-22T16:16:36.519Z,0.75
2022-10-22T16:19:05.264Z,1.20
2022-10-22T16:21:32.371Z,2.60
2022-10-22T16:24:05.930Z,4.18
2022-10-22T16:26:33.882Z,4.28
2022-10-22T16:29:01.089Z,1.45
2022-10-22T16:31:28.441Z,4.90
2022-10-22T16:33:55.545Z,2.38
2022-10-22T16:36:24.393Z,4.55
2022-10-22T16:38:51.508Z,1.73
2022-10-22T16:41:20.489Z,3.03
2022-10-22T16:43:49.813Z,3.08
2022-10-22T16:46:19.314Z,2.60
2022-10-22T16:48:46.444Z,1.67
2022-10-22T16:51:15.277Z,5.72
2022-10-22T16:53:44.137Z,2.40
2022-10-22T16:56:12.749Z,2.08
2022-10-22T16:58:44.361Z,1.50
2022-10-22T17:01:11.569Z,2.28
2022-10-22T17:03:38.746Z,1.88
2022-10-22T17:06:06.453Z,4.55
2022-10-22T17:08:35.016Z,2.08
2022-10-22T17:11:07.568Z,1.52
2022-10-22T17:13:35.150Z,2.83
2022-10-22T17:16:02.811Z,2.15
2022-10-22T17:18:30.767Z,5.22
2022-10-22T17:20:57.884Z,1.73
2022-10-22T17:23:25.322Z,2.53
2022-10-22T17:25:58.109Z,1.85
2022-10-22T17:28:27.232Z,1.80
2022-10-22T17:31:03.350Z,1.33
2022-10-22T17:33:30.457Z,2.65
2022-10-22T17:35:57.823Z,4.40
2022-10-22T17:38:25.114Z,7.78
2022-10-22T17:40:52.545Z,9.25
2022-10-22T17:43:19.841Z,4.10
2022-10-22T17:45:48.467Z,10.25
2022-10-22T17:48:17.585Z,6.18
2022-10-22T17:50:48.287Z,5.20
2022-10-22T17:53:18.667Z,4.72
2022-10-22T17:55:45.765Z,4.35
2022-10-22T17:58:12.867Z,4.13
2022-10-22T18:00:40.049Z,3.85
2022-10-22T18:03:08.851Z,7.43
2022-10-22T18:05:36.137Z,4.72
2022-10-22T18:08:07.739Z,3.90
2022-10-22T18:10:39.414Z,4.75
2022-10-22T18:13:06.622Z,4.25
2022-10-22T18:15:33.837Z,4.20
2022-10-22T18:18:00.960Z,6.80
2022-10-22T18:20:29.511Z,4.80
2022-10-22T18:22:56.799Z,7.50
2022-10-22T18:25:24.007Z,5.95
2022-10-22T18:27:51.203Z,8.00
2022-10-22T18:30:18.311Z,4.82
2022-10-22T18:32:45.435Z,4.60
2022-10-22T18:35:12.619Z,4.30
2022-10-22T18:37:41.344Z,4.68
2022-10-22T18:40:14.362Z,7.57
2022-10-22T18:42:42.377Z,4.43
2022-10-22T18:45:10.367Z,3.88
2022-10-22T18:47:40.284Z,6.25
2022-10-22T18:50:08.605Z,2.75
2022-10-22T18:52:35.717Z,6.85
2022-10-22T18:55:05.312Z,5.03
2022-10-22T18:57:32.683Z,2.05
2022-10-22T18:59:59.782Z,5.22
2022-10-22T19:02:26.886Z,4.45
2022-10-22T19:04:53.998Z,11.27
2022-10-22T19:07:21.100Z,6.10
2022-10-22T19:09:48.301Z,5.72
2022-10-22T19:12:16.907Z,3.60
2022-10-22T19:14:44.010Z,5.63
2022-10-22T19:17:12.246Z,4.57
2022-10-22T19:19:39.615Z,5.43
2022-10-22T19:22:06.721Z,3.95
2022-10-22T19:24:34.384Z,4.40
2022-10-22T19:27:02.738Z,3.97
2022-10-22T19:29:31.221Z,5.68
2022-10-22T19:31:58.747Z,4.47
2022-10-22T19:34:25.927Z,3.90
2022-10-22T19:36:53.114Z,4.18
2022-10-22T19:39:20.317Z,5.95
2022-10-22T19:41:47.697Z,4.18
2022-10-22T19:44:14.827Z,4.82
2022-10-22T19:46:43.317Z,4.47
2022-10-22T19:49:11.108Z,3.15
2022-10-22T19:51:38.226Z,3.50
2022-10-22T19:54:07.426Z,4.30
2022-10-22T19:56:36.011Z,3.88
2022-10-22T19:59:04.214Z,4.30
2022-10-22T20:01:31.509Z,3.15
2022-10-22T20:04:00.338Z,3.40
2022-10-22T20:06:27.610Z,4.22
2022-10-22T20:08:56.188Z,5.57
2022-10-22T20:11:26.177Z,5.95
2022-10-22T20:13:53.541Z,3.90
2022-10-22T20:16:23.072Z,3.75
2022-10-22T20:18:51.024Z,6.18
2022-10-22T20:21:20.782Z,3.03
2022-10-22T20:23:51.791Z,4.45
2022-10-22T20:26:19.321Z,4.05
2022-10-22T20:28:46.675Z,3.25
2022-10-22T20:31:16.563Z,3.13
2022-10-22T20:33:43.686Z,3.70
2022-10-22T20:36:14.213Z,4.05
2022-10-22T20:38:42.903Z,4.05
2022-10-22T20:41:12.293Z,4.38
2022-10-22T20:43:39.419Z,3.80
2022-10-22T20:46:06.570Z,3.10
2022-10-22T20:48:33.677Z,2.22
2022-10-22T20:51:01.254Z,3.25
2022-10-22T20:53:28.418Z,3.78
2022-10-22T20:55:58.796Z,3.60
2022-10-22T20:58:27.197Z,3.33
2022-10-22T21:00:55.582Z,4.13
2022-10-22T21:03:23.216Z,4.28
2022-10-22T21:05:50.371Z,5.60
2022-10-22T21:08:17.720Z,3.70
2022-10-22T21:10:46.098Z,3.08
2022-10-22T21:13:15.089Z,3.45
2022-10-22T21:15:42.455Z,3.33
2022-10-22T21:18:09.576Z,4.20
2022-10-22T21:20:38.450Z,3.72
2022-10-22T21:23:05.867Z,2.85
2022-10-22T21:25:32.952Z,3.53
2022-10-22T21:28:00.165Z,4.68
2022-10-22T21:30:28.641Z,2.88
2022-10-22T21:32:55.780Z,3.85
2022-10-22T21:35:22.894Z,4.82
2022-10-22T21:37:50.039Z,3.72
2022-10-22T21:40:17.134Z,2.63
2022-10-22T21:42:44.322Z,2.95
2022-10-22T21:45:14.810Z,2.30
2022-10-22T21:47:44.509Z,3.65
2022-10-22T21:50:11.921Z,5.00
2022-10-22T21:52:39.015Z,3.72
2022-10-22T21:55:06.595Z,3.30
2022-10-22T21:57:33.698Z,3.78
2022-10-22T22:00:00.809Z,2.17
2022-10-22T22:02:31.154Z,3.30
2022-10-22T22:04:59.650Z,3.00
2022-10-22T22:07:26.735Z,2.70
2022-10-22T22:09:54.055Z,4.40
2022-10-22T22:12:21.192Z,2.63
2022-10-22T22:14:48.400Z,3.13
2022-10-22T22:17:15.744Z,2.67
2022-10-22T22:19:42.873Z,3.25
2022-10-22T22:22:11.363Z,2.65
2022-10-22T22:24:38.899Z,3.00
2022-10-22T22:27:06.297Z,3.75
2022-10-22T22:29:33.796Z,3.42
2022-10-22T22:32:00.882Z,2.92
2022-10-22T22:34:28.026Z,3.70
2022-10-22T22:36:55.132Z,2.90
2022-10-22T22:39:24.073Z,3.15
2022-10-22T22:41:51.761Z,3.30
2022-10-22T22:44:18.861Z,3.50
2022-10-22T22:46:45.972Z,5.72
2022-10-22T22:49:13.483Z,4.15
2022-10-22T22:51:40.799Z,3.90
2022-10-22T22:54:08.918Z,3.08
2022-10-22T22:56:38.277Z,3.53
2022-10-22T22:59:05.870Z,3.20
2022-10-22T23:01:34.551Z,3.10
2022-10-22T23:04:03.874Z,3.85
2022-10-22T23:06:33.413Z,3.90
2022-10-22T23:09:00.639Z,4.13
2022-10-22T23:11:28.951Z,2.75
2022-10-22T23:13:58.858Z,3.15
2022-10-22T23:16:27.642Z,3.03
2022-10-22T23:18:55.212Z,2.25
2022-10-22T23:21:24.475Z,3.25
2022-10-22T23:23:53.568Z,2.65
2022-10-22T23:26:23.927Z,4.95
2022-10-22T23:28:51.028Z,2.47
2022-10-22T23:31:20.800Z,3.25
2022-10-22T23:33:48.718Z,9.55
2022-10-22T23:36:15.892Z,4.15
2022-10-22T23:38:43.014Z,3.83
2022-10-22T23:41:10.382Z,2.83
2022-10-22T23:43:38.228Z,1.77
2022-10-22T23:46:06.838Z,2.45
2022-10-22T23:48:36.174Z,2.25
2022-10-22T23:51:04.484Z,2.10
2022-10-22T23:53:31.602Z,2.55
2022-10-22T23:56:03.630Z,2.65
2022-10-22T23:58:31.000Z,2.78
